Terminal Aerodrome Forecast
Issued by NWS Jackson, KY

Home | Current Version | Previous Version | Text Only | Print | Product List | Glossary On
Versions: 1 2 3 4 5 6 7 8 9 10 11 12 13 14 15 16 17 18
000
FTUS43 KJKL 301400 AAA
TAFLOZ
TAF AMD
KLOZ 301416Z 3014/0112 00000KT 1SM BR OVC002
     FM301500 VRB03KT P6SM SKC
     FM010500 00000KT 3SM BR SKC
     FM010700 00000KT 1/4SM FG VV002=

USA.gov is the U.S. government's official web portal to all federal, state and local government web resources and services.